createdAt,value
2023-01-15T00:01:26.287Z,97416.25
2023-01-15T00:03:55.582Z,97424.88
2023-01-15T00:06:25.276Z,97421.41
2023-01-15T00:08:54.495Z,97424.00
2023-01-15T00:11:23.355Z,97417.09
2023-01-15T00:13:52.764Z,97411.88
2023-01-15T00:16:22.941Z,97406.72
2023-01-15T00:18:53.362Z,97347.28
2023-01-15T00:21:22.243Z,97403.28
2023-01-15T00:24:07.696Z,97385.16
2023-01-15T00:26:54.006Z,97389.44
2023-01-15T00:29:23.192Z,97352.41
2023-01-15T00:31:57.896Z,97386.84
2023-01-15T00:34:28.435Z,97385.94
2023-01-15T00:36:56.665Z,97385.09
2023-01-15T00:39:25.344Z,97266.25
2023-01-15T00:41:54.169Z,97378.19
2023-01-15T00:44:22.770Z,97376.44
2023-01-15T00:46:51.036Z,97371.25
2023-01-15T00:49:19.608Z,97366.03
2023-01-15T00:51:50.205Z,97372.16
2023-01-15T00:54:18.863Z,97362.66
2023-01-15T00:56:47.187Z,97362.63
2023-01-15T00:59:15.413Z,97358.31
2023-01-15T01:01:43.770Z,97352.28
2023-01-15T01:04:12.077Z,97354.91
2023-01-15T01:06:40.365Z,97343.69
2023-01-15T01:09:13.282Z,97317.81
2023-01-15T01:11:41.865Z,97015.09
2023-01-15T01:14:11.727Z,97337.66
2023-01-15T01:16:42.170Z,97341.97
2023-01-15T01:19:12.934Z,97353.19
2023-01-15T01:21:42.432Z,97315.22
2023-01-15T01:24:13.079Z,97334.22
2023-01-15T01:26:41.335Z,97331.56
2023-01-15T01:29:09.516Z,97334.13
2023-01-15T01:31:37.712Z,97267.84
2023-01-15T01:34:05.914Z,97316.88
2023-01-15T01:36:36.105Z,97285.09
2023-01-15T01:39:05.828Z,97312.59
2023-01-15T01:41:36.178Z,97304.81
2023-01-15T01:44:06.244Z,97306.56
2023-01-15T01:46:36.713Z,97300.53
2023-01-15T01:49:10.805Z,97295.34
2023-01-15T01:51:41.413Z,97299.66
2023-01-15T01:54:12.563Z,97301.28
2023-01-15T01:56:42.513Z,97294.47
2023-01-15T01:59:11.100Z,97294.53
2023-01-15T02:01:39.364Z,97285.06
2023-01-15T02:04:09.204Z,97284.25
2023-01-15T02:06:38.718Z,97260.06
2023-01-15T02:09:07.342Z,97274.69
2023-01-15T02:11:36.577Z,97269.56
2023-01-15T02:14:11.983Z,97242.91
2023-01-15T02:16:44.801Z,97239.41
2023-01-15T02:19:24.013Z,97257.47
2023-01-15T02:22:00.782Z,97234.22
2023-01-15T02:24:36.034Z,97242.84
2023-01-15T02:27:10.486Z,97236.81
2023-01-15T02:29:49.148Z,97191.25
2023-01-15T02:32:25.239Z,97267.88
2023-01-15T02:34:59.779Z,97080.31
2023-01-15T02:37:31.643Z,97215.22
2023-01-15T02:40:02.757Z,97088.00
2023-01-15T02:42:34.833Z,97227.28
2023-01-15T02:45:05.396Z,97218.66
2023-01-15T02:47:37.777Z,97185.13
2023-01-15T02:50:14.351Z,97209.09
2023-01-15T02:52:46.841Z,97216.03
2023-01-15T02:55:20.502Z,97197.06
2023-01-15T02:57:53.231Z,97201.38
2023-01-15T03:00:24.943Z,97175.56
2023-01-15T03:02:59.862Z,97178.97
2023-01-15T03:05:32.571Z,97194.38
2023-01-15T03:08:04.273Z,97161.91
2023-01-15T03:10:40.448Z,97190.28
2023-01-15T03:13:17.305Z,97182.50
2023-01-15T03:16:11.797Z,97179.97
2023-01-15T03:18:47.766Z,97179.94
2023-01-15T03:21:22.479Z,97149.84
2023-01-15T03:23:54.959Z,97169.63
2023-01-15T03:26:23.383Z,97141.28
2023-01-15T03:28:53.841Z,97155.88
2023-01-15T03:31:22.395Z,97155.03
2023-01-15T03:33:50.681Z,97154.16
2023-01-15T03:36:18.813Z,97087.09
2023-01-15T03:38:50.953Z,97125.75
2023-01-15T03:41:23.562Z,97142.09
2023-01-15T03:44:03.360Z,97136.09
2023-01-15T03:46:45.103Z,97135.22
2023-01-15T03:49:22.479Z,97111.97
2023-01-15T03:52:00.972Z,97121.44
2023-01-15T03:54:39.055Z,97112.81
2023-01-15T03:57:11.562Z,97052.63
2023-01-15T03:59:47.497Z,97108.47
2023-01-15T04:02:17.114Z,97045.78
2023-01-15T04:04:46.785Z,97107.63
2023-01-15T04:07:15.652Z,97099.09
2023-01-15T04:09:43.939Z,97027.94
2023-01-15T04:12:12.657Z,97088.81
2023-01-15T04:14:42.454Z,97098.25
2023-01-15T04:17:10.803Z,97099.97
2023-01-15T04:19:39.135Z,97078.50
2023-01-15T04:22:07.299Z,97041.56
2023-01-15T04:24:35.627Z,97099.97
2023-01-15T04:27:03.874Z,97091.34
2023-01-15T04:29:32.071Z,97084.38
2023-01-15T04:32:01.721Z,97027.78
2023-01-15T04:34:30.543Z,97076.69
2023-01-15T04:36:59.203Z,97078.47
2023-01-15T04:39:27.386Z,96929.06
2023-01-15T04:42:12.758Z,97086.25
2023-01-15T04:44:41.299Z,96989.28
2023-01-15T04:47:11.098Z,97054.50
2023-01-15T04:49:39.331Z,96997.75
2023-01-15T04:52:07.662Z,97050.13
2023-01-15T04:54:35.875Z,97032.09
2023-01-15T04:57:04.048Z,97052.69
2023-01-15T04:59:32.199Z,97047.56
2023-01-15T05:02:06.357Z,97028.69
2023-01-15T05:04:36.615Z,97039.81
2023-01-15T05:07:06.520Z,97016.59
2023-01-15T05:09:35.006Z,96892.13
2023-01-15T05:12:03.232Z,97039.00
2023-01-15T05:14:31.925Z,97022.63
2023-01-15T05:17:00.360Z,97026.09
2023-01-15T05:19:28.578Z,97020.09
2023-01-15T05:21:58.128Z,97010.59
2023-01-15T05:24:26.403Z,96984.81
2023-01-15T05:26:55.304Z,97007.22
2023-01-15T05:29:23.844Z,96949.63
2023-01-15T05:31:52.136Z,96983.94
2023-01-15T05:34:20.308Z,97009.72
2023-01-15T05:36:48.544Z,97001.09
2023-01-15T05:39:18.233Z,96958.16
2023-01-15T05:41:52.921Z,96983.91
2023-01-15T05:44:23.975Z,97002.88
2023-01-15T05:46:53.863Z,97005.50
2023-01-15T05:49:24.638Z,96999.53
2023-01-15T05:51:53.781Z,97011.53
2023-01-15T05:54:25.264Z,96863.84
2023-01-15T05:56:53.770Z,97014.13
2023-01-15T05:59:23.731Z,96975.47
2023-01-15T06:01:52.013Z,97004.66
2023-01-15T06:04:21.545Z,97002.09
2023-01-15T06:06:51.127Z,97003.84
2023-01-15T06:09:20.068Z,96963.44
2023-01-15T06:11:49.803Z,96994.38
2023-01-15T06:14:18.531Z,96997.78
2023-01-15T06:16:47.371Z,97004.69
2023-01-15T06:19:15.736Z,97002.94
2023-01-15T06:21:44.540Z,96963.41
2023-01-15T06:24:13.061Z,96996.00
2023-01-15T06:26:41.225Z,96993.38
2023-01-15T06:29:10.814Z,96996.84
2023-01-15T06:31:39.100Z,96914.38
2023-01-15T06:34:07.325Z,96992.50
2023-01-15T06:36:35.596Z,96953.81
2023-01-15T06:39:05.319Z,96996.75
2023-01-15T06:41:51.073Z,96998.44
2023-01-15T06:44:38.083Z,96988.97
2023-01-15T06:47:24.916Z,96992.38
2023-01-15T06:49:55.335Z,96986.41
2023-01-15T06:52:24.029Z,96579.06
2023-01-15T06:54:52.705Z,96986.38
2023-01-15T06:57:20.946Z,96989.81
2023-01-15T06:59:51.229Z,96964.88
2023-01-15T07:02:21.630Z,96957.97
2023-01-15T07:04:50.206Z,96981.13
2023-01-15T07:07:20.380Z,96975.09
2023-01-15T07:09:48.751Z,96967.28
2023-01-15T07:12:17.364Z,96973.25
2023-01-15T07:14:45.663Z,96972.31
2023-01-15T07:17:15.394Z,96974.00
2023-01-15T07:19:44.096Z,96948.22
2023-01-15T07:22:12.479Z,96972.13
2023-01-15T07:24:40.710Z,96935.19
2023-01-15T07:27:09.116Z,96968.59
2023-01-15T07:29:37.395Z,96971.13
2023-01-15T07:32:06.200Z,96964.94
2023-01-15T07:34:35.894Z,96943.38
2023-01-15T07:37:04.079Z,96957.16
2023-01-15T07:39:32.822Z,96924.47
2023-01-15T07:42:18.664Z,96971.72
2023-01-15T07:45:04.019Z,96951.78
2023-01-15T07:47:49.646Z,96943.03
2023-01-15T07:50:21.382Z,96936.97
2023-01-15T07:52:53.137Z,96941.19
2023-01-15T07:55:22.144Z,96933.44
2023-01-15T07:57:50.394Z,96916.25
2023-01-15T08:00:22.865Z,96908.47
2023-01-15T08:02:51.162Z,96908.31
2023-01-15T08:05:21.011Z,96919.34
2023-01-15T08:07:50.065Z,96919.34
2023-01-15T08:10:19.743Z,96912.41
2023-01-15T08:13:08.611Z,96909.63
2023-01-15T08:15:41.255Z,96915.72
2023-01-15T08:18:09.509Z,96914.78
2023-01-15T08:20:39.128Z,96915.63
2023-01-15T08:23:07.348Z,96795.94
2023-01-15T08:25:41.084Z,96878.00
2023-01-15T08:28:09.276Z,96907.00
2023-01-15T08:30:37.913Z,96918.81
2023-01-15T08:33:06.101Z,96912.66
2023-01-15T08:35:34.955Z,96913.41
2023-01-15T08:38:07.518Z,96911.53
2023-01-15T08:40:36.543Z,96884.00
2023-01-15T08:43:04.711Z,96916.44
2023-01-15T08:45:32.938Z,96919.69
2023-01-15T08:48:01.075Z,96911.94
2023-01-15T08:50:29.256Z,96927.41
2023-01-15T08:52:57.424Z,96921.56
2023-01-15T08:55:27.092Z,96913.84
2023-01-15T08:57:55.281Z,96923.78
2023-01-15T09:00:24.669Z,96909.03
2023-01-15T09:02:52.862Z,96906.41
2023-01-15T09:05:21.128Z,96909.78
2023-01-15T09:07:49.242Z,96915.88
2023-01-15T09:10:18.930Z,96913.97
2023-01-15T09:12:48.794Z,96906.97
2023-01-15T09:15:17.247Z,96874.34
2023-01-15T09:17:45.525Z,96879.06
2023-01-15T09:20:15.711Z,96890.84
2023-01-15T09:22:43.900Z,96881.88
2023-01-15T09:25:12.174Z,96886.91
2023-01-15T09:27:40.341Z,96884.16
2023-01-15T09:30:16.235Z,96829.91
2023-01-15T09:32:44.353Z,96874.06
2023-01-15T09:35:12.513Z,96864.97
2023-01-15T09:37:40.711Z,96857.00
2023-01-15T09:40:22.684Z,96858.44
2023-01-15T09:42:57.709Z,96864.34
2023-01-15T09:45:29.625Z,96864.09
2023-01-15T09:48:13.157Z,96844.84
2023-01-15T09:50:57.156Z,96842.03
2023-01-15T09:53:42.872Z,96837.34
2023-01-15T09:56:20.799Z,96833.69
2023-01-15T09:58:49.304Z,96831.72
2023-01-15T10:01:26.218Z,96827.16
2023-01-15T10:04:01.061Z,96834.22
2023-01-15T10:06:33.938Z,96727.22
2023-01-15T10:09:07.942Z,96829.75
2023-01-15T10:12:01.020Z,96820.22
2023-01-15T10:14:44.991Z,96795.38
2023-01-15T10:17:23.925Z,96718.91
2023-01-15T10:19:52.723Z,96817.16
2023-01-15T10:22:33.778Z,96788.97
2023-01-15T10:25:05.749Z,96800.75
2023-01-15T10:27:34.101Z,96799.03
2023-01-15T10:30:07.702Z,96778.38
2023-01-15T10:33:01.152Z,96800.31
2023-01-15T10:35:41.829Z,96664.47
2023-01-15T10:38:20.432Z,96792.72
2023-01-15T10:41:05.386Z,96773.69
2023-01-15T10:43:45.932Z,96788.78
2023-01-15T10:46:17.479Z,96774.09
2023-01-15T10:48:50.110Z,96767.28
2023-01-15T10:51:22.820Z,96761.00
2023-01-15T10:53:54.673Z,96761.06
2023-01-15T10:56:33.026Z,96743.72
2023-01-15T10:59:08.820Z,96741.03
2023-01-15T11:01:38.469Z,96735.63
2023-01-15T11:04:10.347Z,96714.78
2023-01-15T11:06:38.629Z,96735.09
2023-01-15T11:09:10.250Z,96737.34
2023-01-15T11:11:58.621Z,96741.28
2023-01-15T11:14:51.959Z,96742.66
2023-01-15T11:17:37.564Z,96727.66
2023-01-15T11:20:17.555Z,96687.38
2023-01-15T11:22:45.863Z,96726.63
2023-01-15T11:25:15.259Z,96637.81
2023-01-15T11:27:43.450Z,96720.31
2023-01-15T11:30:28.977Z,96686.31
2023-01-15T11:32:58.582Z,96697.72
2023-01-15T11:35:28.655Z,96707.38
2023-01-15T11:38:07.666Z,96693.28
2023-01-15T11:40:35.922Z,96686.78
2023-01-15T11:43:21.407Z,96694.59
2023-01-15T11:46:08.884Z,96682.22
2023-01-15T11:49:03.441Z,96698.44
2023-01-15T11:51:43.701Z,96681.56
2023-01-15T11:54:15.204Z,96684.00
2023-01-15T11:56:45.608Z,96677.06
2023-01-15T11:59:17.760Z,96685.81
2023-01-15T12:01:54.950Z,96681.78
2023-01-15T12:04:37.722Z,96677.59
2023-01-15T12:07:13.951Z,96627.41
2023-01-15T12:09:58.369Z,96672.44
2023-01-15T12:12:40.865Z,96675.03
2023-01-15T12:15:19.975Z,96662.13
2023-01-15T12:18:10.131Z,96638.66
2023-01-15T12:20:53.655Z,96641.88
2023-01-15T12:23:47.466Z,96634.97
2023-01-15T12:26:22.163Z,96610.50
2023-01-15T12:28:58.735Z,96662.78
2023-01-15T12:31:32.268Z,96652.09
2023-01-15T12:34:08.811Z,96638.84
2023-01-15T12:36:43.192Z,96641.28
2023-01-15T12:39:20.415Z,96635.94
2023-01-15T12:42:08.024Z,96632.53
2023-01-15T12:45:00.474Z,96625.16
2023-01-15T12:47:33.939Z,96622.56
2023-01-15T12:50:10.207Z,96624.09
2023-01-15T12:52:43.127Z,96633.09
2023-01-15T12:55:18.060Z,96630.41
2023-01-15T12:57:51.046Z,96608.03
2023-01-15T13:00:22.740Z,96639.84
2023-01-15T13:03:11.676Z,96610.66
2023-01-15T13:05:47.708Z,96611.50
2023-01-15T13:08:24.906Z,96607.31
2023-01-15T13:10:54.545Z,96539.88
2023-01-15T13:13:24.776Z,96617.84
2023-01-15T13:16:17.616Z,96570.38
2023-01-15T13:18:56.660Z,96622.78
2023-01-15T13:21:27.465Z,96618.59
2023-01-15T13:24:12.753Z,96607.63
2023-01-15T13:27:18.213Z,96602.22
2023-01-15T13:30:01.722Z,96577.53
2023-01-15T13:32:34.382Z,96580.31
2023-01-15T13:35:10.425Z,96602.66
2023-01-15T13:37:43.742Z,96593.09
2023-01-15T13:40:19.532Z,96605.19
2023-01-15T13:42:50.872Z,96610.47
2023-01-15T13:45:34.744Z,96593.53
2023-01-15T13:48:08.158Z,96616.53
2023-01-15T13:50:38.602Z,96610.78
2023-01-15T13:53:18.629Z,96608.94
2023-01-15T13:55:53.912Z,96612.31
2023-01-15T13:58:26.562Z,96610.84
2023-01-15T14:01:25.258Z,96617.31
2023-01-15T14:04:04.261Z,96619.19
2023-01-15T14:06:44.499Z,96581.16
2023-01-15T14:09:14.649Z,96596.66
2023-01-15T14:11:59.861Z,96601.28
2023-01-15T14:15:05.344Z,96595.25
2023-01-15T14:18:05.031Z,96627.88
2023-01-15T14:20:44.570Z,96638.06
2023-01-15T14:23:45.377Z,96639.81
2023-01-15T14:26:20.649Z,96646.13
2023-01-15T14:29:01.370Z,96636.66
2023-01-15T14:31:58.901Z,96655.50
2023-01-15T14:34:30.267Z,96653.53
2023-01-15T14:37:01.537Z,96655.44
2023-01-15T14:39:39.156Z,96654.59
2023-01-15T14:42:29.780Z,96651.41
2023-01-15T14:45:01.779Z,96648.84
2023-01-15T14:47:36.865Z,96679.94
2023-01-15T14:50:25.641Z,96670.09
2023-01-15T14:52:56.150Z,96679.97
2023-01-15T14:55:24.707Z,96678.47
2023-01-15T14:57:58.959Z,96661.56
2023-01-15T15:00:35.352Z,96685.56
2023-01-15T15:03:14.255Z,96586.91
2023-01-15T15:05:43.375Z,96675.78
2023-01-15T15:08:14.832Z,96697.19
2023-01-15T15:10:45.563Z,96695.38
2023-01-15T15:13:20.733Z,96591.38
2023-01-15T15:15:53.624Z,96653.75
2023-01-15T15:18:32.540Z,96681.84
2023-01-15T15:21:08.205Z,96638.31
2023-01-15T15:23:43.623Z,96680.09
2023-01-15T15:26:25.631Z,96686.25
2023-01-15T15:29:00.778Z,96680.19
2023-01-15T15:31:30.704Z,96617.25
2023-01-15T15:34:00.815Z,96672.81
2023-01-15T15:36:32.432Z,96675.50
2023-01-15T15:39:03.104Z,96691.03
2023-01-15T15:41:54.130Z,96692.00
2023-01-15T15:44:51.027Z,96677.84
2023-01-15T15:47:38.761Z,96692.53
2023-01-15T15:50:09.261Z,96705.88
2023-01-15T15:52:37.383Z,96704.22
2023-01-15T15:55:06.305Z,96700.84
2023-01-15T15:57:36.480Z,96704.34
2023-01-15T16:00:06.403Z,96711.81
2023-01-15T16:02:38.368Z,96675.97
2023-01-15T16:05:24.913Z,96704.50
2023-01-15T16:07:54.004Z,96706.78
2023-01-15T16:10:27.313Z,96702.06
2023-01-15T16:12:57.745Z,96727.78
2023-01-15T16:15:29.743Z,96734.63
2023-01-15T16:17:59.122Z,96664.78
2023-01-15T16:20:29.217Z,96744.31
2023-01-15T16:22:59.179Z,96761.72
2023-01-15T16:25:31.119Z,96762.41
2023-01-15T16:27:59.839Z,96759.81
2023-01-15T16:30:29.289Z,96758.97
2023-01-15T16:33:02.595Z,96768.41
2023-01-15T16:35:36.090Z,96745.34
2023-01-15T16:38:05.970Z,96783.91
2023-01-15T16:40:37.269Z,96794.25
2023-01-15T16:43:11.319Z,96794.22
2023-01-15T16:45:58.282Z,96765.88
2023-01-15T16:48:30.030Z,96798.56
2023-01-15T16:50:59.700Z,96809.03
2023-01-15T16:53:38.099Z,96811.69
2023-01-15T16:56:06.980Z,96734.72
2023-01-15T16:58:38.297Z,96814.13
2023-01-15T17:01:26.744Z,96830.50
2023-01-15T17:03:55.224Z,96829.72
2023-01-15T17:06:27.639Z,96823.47
2023-01-15T17:08:57.743Z,96826.03
2023-01-15T17:11:29.935Z,96820.13
2023-01-15T17:14:10.666Z,96691.69
2023-01-15T17:16:39.007Z,96825.06
2023-01-15T17:19:08.692Z,96840.78
2023-01-15T17:21:39.282Z,96841.81
2023-01-15T17:24:08.970Z,96828.19
2023-01-15T17:26:37.390Z,96840.78
2023-01-15T17:29:05.637Z,96833.13
2023-01-15T17:31:36.448Z,96839.16
2023-01-15T17:34:05.197Z,96824.69
2023-01-15T17:36:34.712Z,96806.78
2023-01-15T17:39:04.412Z,96852.28
2023-01-15T17:41:32.585Z,96853.13
2023-01-15T17:44:00.826Z,96853.13
2023-01-15T17:46:29.146Z,96747.88
2023-01-15T17:48:57.398Z,96853.94
2023-01-15T17:51:26.455Z,96845.47
2023-01-15T17:53:54.667Z,96863.44
2023-01-15T17:56:41.790Z,96866.84
2023-01-15T17:59:29.799Z,96872.00
2023-01-15T18:02:15.541Z,96880.63
2023-01-15T18:05:04.574Z,96885.09
2023-01-15T18:07:37.657Z,96870.59
2023-01-15T18:10:07.689Z,96890.94
2023-01-15T18:12:37.520Z,96890.16
2023-01-15T18:15:06.463Z,96886.66
2023-01-15T18:17:34.723Z,96895.41
2023-01-15T18:20:03.041Z,96898.91
2023-01-15T18:22:31.298Z,96899.81
2023-01-15T18:24:59.574Z,96901.47
2023-01-15T18:27:30.029Z,96875.84
2023-01-15T18:30:00.328Z,96909.03
2023-01-15T18:32:30.718Z,96904.75
2023-01-15T18:34:58.927Z,96851.81
2023-01-15T18:37:27.150Z,96896.38
2023-01-15T18:39:55.375Z,96894.50
2023-01-15T18:42:41.283Z,96909.22
2023-01-15T18:45:30.140Z,96902.28
2023-01-15T18:47:58.435Z,96910.97
2023-01-15T18:50:27.028Z,96911.84
2023-01-15T18:52:55.626Z,96903.16
2023-01-15T18:55:25.500Z,96904.94
2023-01-15T18:57:53.796Z,96917.84
2023-01-15T19:00:24.823Z,96895.63
2023-01-15T19:02:53.234Z,96799.88
2023-01-15T19:05:21.599Z,96910.97
2023-01-15T19:07:49.788Z,96889.59
2023-01-15T19:10:19.093Z,96788.59
2023-01-15T19:12:47.320Z,96899.75
2023-01-15T19:15:35.767Z,96909.94
2023-01-15T19:18:23.362Z,96913.31
2023-01-15T19:20:51.923Z,96915.31
2023-01-15T19:23:21.894Z,96913.94
2023-01-15T19:25:50.297Z,96830.31
2023-01-15T19:28:20.165Z,96864.66
2023-01-15T19:31:10.903Z,96907.34
2023-01-15T19:33:40.700Z,96899.47
2023-01-15T19:36:09.351Z,96884.97
2023-01-15T19:38:38.553Z,96910.63
2023-01-15T19:41:28.738Z,96891.59
2023-01-15T19:44:14.143Z,96910.44
2023-01-15T19:47:00.259Z,96916.41
2023-01-15T19:49:52.107Z,96917.41
2023-01-15T19:52:35.764Z,96926.06
2023-01-15T19:55:04.676Z,96907.28
2023-01-15T19:57:32.877Z,96916.41
2023-01-15T20:00:01.069Z,96911.97
2023-01-15T20:02:29.420Z,96920.66
2023-01-15T20:04:59.138Z,96899.31
2023-01-15T20:07:27.348Z,96904.47
2023-01-15T20:09:55.739Z,96928.50
2023-01-15T20:12:53.037Z,96911.31
2023-01-15T20:15:21.692Z,96932.59
2023-01-15T20:17:50.400Z,96934.38
2023-01-15T20:20:20.187Z,96564.91
2023-01-15T20:22:48.585Z,96936.19
2023-01-15T20:25:16.986Z,96931.75
2023-01-15T20:27:45.187Z,96936.00
2023-01-15T20:30:16.152Z,96938.78
2023-01-15T20:32:45.716Z,96919.13
2023-01-15T20:35:16.053Z,96919.19
2023-01-15T20:37:45.897Z,96933.66
2023-01-15T20:40:15.184Z,96905.00
2023-01-15T20:43:03.287Z,96927.31
2023-01-15T20:45:31.810Z,96849.72
2023-01-15T20:48:17.499Z,96945.84
2023-01-15T20:51:00.840Z,96959.03
2023-01-15T20:53:33.463Z,96924.00
2023-01-15T20:56:03.787Z,96672.50
2023-01-15T20:58:32.156Z,96961.59
2023-01-15T21:01:06.829Z,96940.94
2023-01-15T21:03:43.087Z,96917.06
2023-01-15T21:06:53.274Z,96922.38
2023-01-15T21:09:23.341Z,96953.00
2023-01-15T21:12:18.980Z,96951.41
2023-01-15T21:14:47.372Z,96899.94
2023-01-15T21:17:21.943Z,96936.41
2023-01-15T21:20:10.272Z,96937.50
2023-01-15T21:22:56.562Z,96884.56
2023-01-15T21:25:47.546Z,96914.34
2023-01-15T21:28:32.936Z,96938.44
2023-01-15T21:31:18.255Z,96876.84
2023-01-15T21:33:57.372Z,96945.22
2023-01-15T21:36:41.053Z,96952.09
2023-01-15T21:39:22.372Z,96956.31
2023-01-15T21:42:22.794Z,96892.06
2023-01-15T21:45:10.239Z,96945.00
2023-01-15T21:47:52.372Z,96905.50
2023-01-15T21:50:33.803Z,96923.31
2023-01-15T21:53:02.918Z,96959.25
2023-01-15T21:55:31.255Z,96936.56
2023-01-15T21:58:01.265Z,96950.13
2023-01-15T22:00:29.567Z,96952.50
2023-01-15T22:02:58.636Z,96920.78
2023-01-15T22:05:26.849Z,96957.69
2023-01-15T22:07:56.537Z,96951.50
2023-01-15T22:10:24.717Z,96940.09
2023-01-15T22:12:55.380Z,96949.69
2023-01-15T22:15:36.360Z,96937.50
2023-01-15T22:18:08.827Z,96938.66
2023-01-15T22:20:37.765Z,96940.41
2023-01-15T22:23:09.986Z,96898.72
2023-01-15T22:25:47.392Z,96933.03
2023-01-15T22:28:16.385Z,96936.47
2023-01-15T22:30:46.514Z,96920.06
2023-01-15T22:33:14.839Z,96924.59
2023-01-15T22:35:43.237Z,96935.19
2023-01-15T22:38:11.395Z,96893.88
2023-01-15T22:40:39.632Z,96896.63
2023-01-15T22:43:08.072Z,96914.28
2023-01-15T22:45:40.991Z,96911.72
2023-01-15T22:48:13.508Z,96902.19
2023-01-15T22:50:41.899Z,96893.47
2023-01-15T22:53:10.258Z,96861.88
2023-01-15T22:55:39.030Z,96896.22
2023-01-15T22:58:08.950Z,96883.31
2023-01-15T23:00:37.463Z,96889.31
2023-01-15T23:03:09.798Z,96845.72
2023-01-15T23:05:39.603Z,96882.50
2023-01-15T23:08:08.524Z,96894.91
2023-01-15T23:10:48.164Z,96875.03
2023-01-15T23:13:16.627Z,96857.31
2023-01-15T23:15:44.995Z,96856.66
2023-01-15T23:18:13.212Z,96859.84
2023-01-15T23:20:43.278Z,96862.47
2023-01-15T23:23:11.395Z,96875.53
2023-01-15T23:25:39.520Z,96862.47
2023-01-15T23:28:07.681Z,96864.91
2023-01-15T23:30:35.839Z,96867.41
2023-01-15T23:33:04.331Z,96869.25
2023-01-15T23:35:32.818Z,96871.88
2023-01-15T23:38:02.398Z,96867.41
2023-01-15T23:40:30.521Z,96849.50
2023-01-15T23:43:30.667Z,96749.22
2023-01-15T23:46:16.961Z,96864.59
2023-01-15T23:48:45.373Z,96667.91
2023-01-15T23:51:13.623Z,96516.78
2023-01-15T23:53:43.258Z,96851.75
2023-01-15T23:56:11.458Z,96702.34
2023-01-15T23:58:40.378Z,96837.34
